Time;durP1;ratioP1;P1;durP2;ratioP2;P2;SDS_P1;SDS_P2;PMS_P1;PMS_P2;Temp;Humidity;BMP_temperature;BMP_pressure;BME280_temperature;BME280_humidity;BME280_pressure;Samples;Min_cycle;Max_cycle;Signal;HPM_P1;HPM_P2
2024/01/22 00:02:00;;;;;;;3.30;1.00;;;6.90;99.90;;;;;;5056929;28;20033;-55
2024/01/22 00:04:25;;;;;;;2.10;0.60;;;7.00;99.90;;;;;;5057384;28;20029;-56
2024/01/22 00:06:54;;;;;;;2.63;0.90;;;7.00;99.90;;;;;;5057841;28;20025;-53
2024/01/22 00:09:20;;;;;;;6.63;1.30;;;7.00;99.90;;;;;;5057033;28;20079;-55
2024/01/22 00:11:46;;;;;;;3.13;0.90;;;7.00;99.90;;;;;;5057354;28;20108;-56
2024/01/22 00:14:11;;;;;;;3.00;1.10;;;7.00;99.90;;;;;;5056771;28;20119;-51
2024/01/22 00:16:40;;;;;;;2.80;1.00;;;7.10;99.90;;;;;;5057100;28;20079;-54
2024/01/22 00:19:07;;;;;;;2.13;0.80;;;7.00;99.90;;;;;;5057045;28;20478;-53
2024/01/22 00:21:32;;;;;;;2.87;1.20;;;7.10;99.90;;;;;;5057056;28;20036;-53
2024/01/22 00:23:58;;;;;;;4.77;2.10;;;7.20;99.90;;;;;;5056912;28;20029;-53
2024/01/22 00:26:23;;;;;;;3.67;1.57;;;7.20;99.90;;;;;;5057240;28;20444;-54
2024/01/22 00:28:49;;;;;;;2.23;1.27;;;7.20;99.90;;;;;;5055573;28;20025;-54
2024/01/22 00:31:15;;;;;;;3.13;1.10;;;7.30;99.90;;;;;;5057285;28;20025;-55
2024/01/22 00:33:43;;;;;;;4.60;1.20;;;7.30;99.90;;;;;;5057004;28;20074;-55
2024/01/22 00:36:13;;;;;;;3.47;0.83;;;7.30;99.90;;;;;;5056747;28;20056;-56
2024/01/22 00:38:39;;;;;;;;;;;7.30;99.90;;;;;;5057334;28;20029;-55
2024/01/22 00:41:04;;;;;;;2.93;1.27;;;7.30;99.90;;;;;;5056704;28;19909;-56
2024/01/22 00:43:30;;;;;;;2.23;1.00;;;7.30;99.90;;;;;;5057478;28;20083;-56
2024/01/22 00:45:57;;;;;;;3.90;1.10;;;7.40;99.90;;;;;;5057219;28;20115;-54
2024/01/22 00:48:23;;;;;;;2.53;1.27;;;7.40;99.90;;;;;;5057148;28;20088;-52
2024/01/22 00:50:49;;;;;;;2.40;1.00;;;7.40;99.90;;;;;;5056280;28;20025;-52
2024/01/22 00:53:15;;;;;;;2.67;1.17;;;7.40;99.90;;;;;;5055942;28;20043;-51
2024/01/22 00:55:40;;;;;;;4.20;0.93;;;7.40;99.90;;;;;;5056711;28;20120;-55
2024/01/22 00:58:06;;;;;;;2.87;1.17;;;7.40;99.90;;;;;;5056450;28;20037;-53
2024/01/22 01:00:31;;;;;;;3.43;0.87;;;7.40;99.90;;;;;;5055693;28;20044;-52
2024/01/22 01:02:57;;;;;;;2.27;1.00;;;7.40;99.90;;;;;;5055959;28;20114;-55
2024/01/22 01:05:23;;;;;;;2.67;1.10;;;7.40;99.90;;;;;;5056350;28;20036;-53
2024/01/22 01:07:48;;;;;;;3.40;1.00;;;7.50;99.90;;;;;;5055643;28;20029;-52
2024/01/22 01:10:14;;;;;;;2.20;1.07;;;7.50;99.90;;;;;;5055993;28;20028;-54
2024/01/22 01:12:39;;;;;;;2.93;1.17;;;7.50;99.90;;;;;;5055948;28;20071;-53
2024/01/22 01:15:06;;;;;;;3.13;1.07;;;7.50;99.90;;;;;;5056097;28;20094;-55
2024/01/22 01:17:32;;;;;;;3.53;1.00;;;7.60;99.90;;;;;;5056624;28;20033;-53
2024/01/22 01:19:57;;;;;;;2.03;0.80;;;7.60;99.90;;;;;;5056033;28;20033;-51
2024/01/22 01:22:23;;;;;;;3.33;1.20;;;7.60;99.90;;;;;;5056214;28;20160;-54
2024/01/22 01:24:48;;;;;;;1.93;1.00;;;7.60;99.90;;;;;;5056069;28;20032;-53
2024/01/22 01:27:17;;;;;;;3.90;1.03;;;7.60;99.90;;;;;;5056220;28;20075;-55
2024/01/22 01:29:43;;;;;;;1.83;0.90;;;7.60;99.90;;;;;;5055316;28;20050;-51
2024/01/22 01:32:08;;;;;;;2.60;1.10;;;7.60;99.90;;;;;;5055693;28;20024;-55
2024/01/22 01:34:34;;;;;;;1.70;0.80;;;7.60;99.90;;;;;;5056059;28;20039;-53
2024/01/22 01:36:59;;;;;;;3.70;0.90;;;7.60;99.90;;;;;;5055999;28;20025;-56
2024/01/22 01:39:25;;;;;;;2.03;0.80;;;7.60;99.90;;;;;;5055307;28;20433;-54
2024/01/22 01:41:51;;;;;;;1.77;0.80;;;7.70;99.90;;;;;;5055233;28;20021;-54
2024/01/22 01:44:16;;;;;;;1.87;1.17;;;7.70;99.90;;;;;;5055396;28;20025;-54
2024/01/22 01:46:42;;;;;;;2.43;1.00;;;7.60;99.90;;;;;;5054532;28;20120;-54
2024/01/22 01:49:08;;;;;;;2.57;1.13;;;7.70;99.90;;;;;;5054367;28;20044;-57
2024/01/22 01:51:35;;;;;;;2.00;0.80;;;7.70;99.90;;;;;;5054156;28;20474;-52
2024/01/22 01:54:04;;;;;;;3.90;0.83;;;7.70;99.90;;;;;;5055156;28;20447;-54
2024/01/22 01:56:30;;;;;;;3.57;1.00;;;7.80;99.90;;;;;;5055541;28;20033;-53
2024/01/22 01:58:56;;;;;;;1.87;0.83;;;7.80;99.90;;;;;;5055430;28;20432;-55
2024/01/22 02:01:22;;;;;;;3.63;1.03;;;7.90;99.90;;;;;;5055715;28;20047;-54
2024/01/22 02:03:48;;;;;;;2.73;0.90;;;7.90;99.90;;;;;;5054199;28;20096;-55
2024/01/22 02:06:13;;;;;;;2.20;0.80;;;8.00;99.90;;;;;;5055797;28;20025;-52
2024/01/22 02:08:39;;;;;;;2.37;0.77;;;8.00;99.90;;;;;;5055109;28;20025;-56
2024/01/22 02:11:05;;;;;;;2.77;0.67;;;8.10;99.90;;;;;;5054982;28;20025;-55
2024/01/22 02:13:31;;;;;;;1.40;0.80;;;8.10;99.90;;;;;;5053658;28;20059;-55
2024/01/22 02:15:56;;;;;;;3.00;1.17;;;8.10;99.90;;;;;;5055128;28;20032;-55
2024/01/22 02:18:22;;;;;;;1.50;0.73;;;8.20;99.90;;;;;;5055435;28;20033;-54
2024/01/22 02:20:47;;;;;;;1.90;0.73;;;8.20;99.90;;;;;;5054656;28;20033;-51
2024/01/22 02:23:13;;;;;;;1.87;0.80;;;8.30;99.90;;;;;;5054612;28;20036;-54
2024/01/22 02:25:39;;;;;;;3.17;0.87;;;8.20;99.90;;;;;;5055275;28;20049;-52
2024/01/22 02:28:05;;;;;;;1.53;0.70;;;8.30;99.90;;;;;;5055407;28;20033;-55
2024/01/22 02:30:30;;;;;;;0.97;0.67;;;8.30;99.90;;;;;;5055145;28;20047;-52
2024/01/22 02:32:56;;;;;;;1.90;0.60;;;8.30;99.90;;;;;;5054767;28;20486;-56
2024/01/22 02:35:21;;;;;;;1.53;0.77;;;8.30;99.90;;;;;;5055141;28;20029;-55
2024/01/22 02:37:47;;;;;;;2.83;0.83;;;8.40;99.90;;;;;;5054918;28;20107;-50
2024/01/22 02:40:13;;;;;;;1.30;0.80;;;8.40;99.90;;;;;;5055404;28;20674;-54
2024/01/22 02:42:39;;;;;;;1.47;1.00;;;8.50;99.90;;;;;;5054343;28;20052;-53
2024/01/22 02:45:06;;;;;;;1.33;0.60;;;8.50;99.90;;;;;;5054988;28;20036;-54
2024/01/22 02:47:32;;;;;;;1.30;0.60;;;8.50;99.90;;;;;;5054755;28;20029;-56
2024/01/22 02:49:57;;;;;;;1.87;0.70;;;8.50;99.90;;;;;;5054774;28;20040;-54
2024/01/22 02:52:23;;;;;;;2.70;0.80;;;8.50;99.90;;;;;;5055030;28;20079;-54
2024/01/22 02:54:49;;;;;;;1.87;0.70;;;8.50;99.90;;;;;;5054585;28;20056;-52
2024/01/22 02:57:14;;;;;;;1.37;0.60;;;8.60;99.90;;;;;;5054565;28;20029;-55
2024/01/22 02:59:43;;;;;;;3.23;0.90;;;8.60;99.90;;;;;;5053429;28;20059;-56
2024/01/22 03:02:10;;;;;;;0.68;0.45;;;8.70;99.90;;;;;;5055211;28;20040;-55
2024/01/22 03:04:35;;;;;;;1.60;0.80;;;8.70;99.90;;;;;;5053213;28;20041;-56
2024/01/22 03:07:01;;;;;;;1.20;0.70;;;8.70;99.90;;;;;;5054675;28;20070;-54
2024/01/22 03:09:26;;;;;;;4.90;0.80;;;8.70;99.90;;;;;;5053305;28;20498;-56
2024/01/22 03:11:52;;;;;;;2.40;0.87;;;8.80;99.90;;;;;;5053149;28;20017;-53
2024/01/22 03:14:17;;;;;;;2.07;0.80;;;8.80;99.90;;;;;;5054882;28;20040;-55
2024/01/22 03:16:43;;;;;;;1.77;0.60;;;8.80;99.90;;;;;;5054688;28;20073;-52
2024/01/22 03:19:08;;;;;;;1.40;0.67;;;8.80;99.90;;;;;;5054142;28;20032;-55
2024/01/22 03:21:34;;;;;;;1.60;0.87;;;8.80;99.90;;;;;;5053082;28;20071;-54
2024/01/22 03:24:00;;;;;;;0.83;0.43;;;8.90;99.90;;;;;;5054599;28;20037;-53
2024/01/22 03:26:25;;;;;;;1.63;0.67;;;8.90;99.90;;;;;;5054876;28;20068;-55
2024/01/22 03:28:51;;;;;;;0.73;0.47;;;8.90;99.90;;;;;;5055169;28;20126;-51
2024/01/22 03:31:25;;;;;;;3.80;0.70;;;8.90;99.90;;;;;;5054068;28;20040;-55
2024/01/22 03:33:52;;;;;;;1.80;0.80;;;8.90;99.90;;;;;;5054894;28;20033;-51
2024/01/22 03:36:18;;;;;;;4.33;1.13;;;8.90;99.90;;;;;;5057179;28;20104;-54
2024/01/22 03:38:45;;;;;;;1.10;0.60;;;8.70;99.90;;;;;;5058105;28;20041;-54
2024/01/22 03:41:11;;;;;;;2.67;0.80;;;8.60;99.90;;;;;;5057060;28;20052;-55
2024/01/22 03:43:36;;;;;;;3.27;0.97;;;8.40;99.90;;;;;;5056985;28;20116;-52
2024/01/22 03:46:02;;;;;;;1.93;1.20;;;8.30;99.90;;;;;;5058490;28;20067;-53
2024/01/22 03:48:28;;;;;;;1.50;0.70;;;8.20;99.90;;;;;;5058823;28;20104;-56
2024/01/22 03:50:54;;;;;;;1.33;0.63;;;8.00;99.90;;;;;;5057677;28;20025;-54
2024/01/22 03:53:20;;;;;;;1.27;0.67;;;8.00;99.90;;;;;;5057801;28;20238;-54
2024/01/22 03:55:46;;;;;;;2.90;0.77;;;8.00;99.90;;;;;;5058476;28;20032;-56
2024/01/22 03:58:11;;;;;;;1.73;0.80;;;8.00;99.90;;;;;;5057395;28;20370;-55
2024/01/22 04:00:38;;;;;;;0.77;0.50;;;8.00;99.90;;;;;;5058363;28;20040;-55
2024/01/22 04:03:04;;;;;;;1.40;0.63;;;7.90;99.90;;;;;;5056726;28;20044;-55
2024/01/22 04:05:29;;;;;;;1.33;0.73;;;8.00;99.90;;;;;;5058503;28;20021;-56
2024/01/22 04:07:56;;;;;;;1.40;0.70;;;8.00;99.90;;;;;;5057325;28;20083;-56
2024/01/22 04:10:21;;;;;;;3.83;0.60;;;8.00;99.90;;;;;;5058809;28;20021;-54
2024/01/22 04:12:47;;;;;;;1.23;0.60;;;8.00;99.90;;;;;;5058880;28;20035;-53
2024/01/22 04:15:13;;;;;;;1.10;0.70;;;8.00;99.90;;;;;;5057208;28;20036;-53
2024/01/22 04:17:38;;;;;;;4.70;0.90;;;8.00;99.90;;;;;;5058248;28;20135;-54
2024/01/22 04:20:05;;;;;;;2.67;0.90;;;8.00;99.90;;;;;;5057968;28;20037;-56
2024/01/22 04:22:30;;;;;;;2.00;1.00;;;8.00;99.90;;;;;;5057704;28;20118;-54
2024/01/22 04:24:56;;;;;;;1.90;0.90;;;8.00;99.90;;;;;;5069681;22;20529;-54
2024/01/22 04:27:22;;;;;;;1.77;0.80;;;7.90;99.90;;;;;;5054025;28;20029;-56
2024/01/22 04:29:47;;;;;;;0.73;0.60;;;8.00;99.90;;;;;;5053823;28;20067;-56
2024/01/22 04:32:13;;;;;;;1.40;0.80;;;8.00;99.90;;;;;;5053712;28;20028;-50
2024/01/22 04:34:39;;;;;;;1.93;0.87;;;8.00;99.90;;;;;;5053691;28;20033;-52
2024/01/22 04:37:05;;;;;;;1.20;0.63;;;8.00;99.90;;;;;;5053762;28;20095;-57
2024/01/22 04:39:31;;;;;;;3.03;0.90;;;8.00;99.90;;;;;;5053429;28;20473;-56
2024/01/22 04:41:57;;;;;;;3.60;1.00;;;8.00;99.90;;;;;;5053361;28;20078;-55
2024/01/22 04:44:22;;;;;;;2.73;0.90;;;8.00;99.90;;;;;;5053453;28;20525;-55
2024/01/22 04:46:48;;;;;;;3.00;0.90;;;7.90;99.90;;;;;;5053093;28;20474;-55
2024/01/22 04:49:14;;;;;;;1.30;0.70;;;7.90;99.90;;;;;;5053130;28;20032;-55
2024/01/22 04:51:42;;;;;;;2.17;0.80;;;8.00;99.90;;;;;;5053160;28;20029;-55
2024/01/22 04:54:09;;;;;;;2.50;0.90;;;8.00;99.90;;;;;;5052065;28;20040;-52
2024/01/22 04:56:42;;;;;;;1.80;0.80;;;8.00;99.90;;;;;;5053172;28;20116;-55
2024/01/22 04:59:08;;;;;;;2.33;0.73;;;8.00;99.90;;;;;;5053056;28;20025;-56
2024/01/22 05:01:34;;;;;;;1.83;0.80;;;8.00;99.90;;;;;;5053136;28;20128;-55
2024/01/22 05:03:59;;;;;;;1.50;0.50;;;8.10;99.90;;;;;;5052957;28;20112;-53
2024/01/22 05:06:25;;;;;;;1.67;0.60;;;8.10;99.90;;;;;;5053048;28;20035;-55
2024/01/22 05:08:50;;;;;;;1.50;0.77;;;8.20;99.90;;;;;;5052830;28;20083;-51
2024/01/22 05:11:16;;;;;;;4.43;0.73;;;8.30;99.90;;;;;;5052858;28;20036;-55
2024/01/22 05:13:50;;;;;;;3.00;1.00;;;8.30;99.90;;;;;;5052816;28;20104;-55
2024/01/22 05:16:16;;;;;;;2.87;0.97;;;8.40;99.90;;;;;;5052742;28;20033;-52
2024/01/22 05:18:43;;;;;;;1.20;0.67;;;8.40;99.90;;;;;;5052548;28;20060;-51
2024/01/22 05:21:08;;;;;;;1.43;0.70;;;8.50;99.90;;;;;;5052727;28;20052;-54
2024/01/22 05:23:34;;;;;;;1.50;0.40;;;8.60;99.90;;;;;;5052740;28;20032;-53
2024/01/22 05:25:59;;;;;;;2.77;0.80;;;8.70;99.90;;;;;;5052663;28;20106;-55
2024/01/22 05:28:25;;;;;;;2.50;0.60;;;8.80;99.90;;;;;;5052673;28;20493;-56
2024/01/22 05:30:50;;;;;;;5.30;1.07;;;8.80;99.90;;;;;;5052364;28;20100;-52
2024/01/22 05:33:16;;;;;;;1.63;0.80;;;8.90;99.90;;;;;;5052431;28;20029;-55
2024/01/22 05:35:41;;;;;;;3.10;1.10;;;9.00;99.90;;;;;;5051285;28;20454;-54
2024/01/22 05:38:07;;;;;;;0.77;0.60;;;8.90;99.90;;;;;;5052493;28;20032;-55
2024/01/22 05:40:32;;;;;;;1.27;0.70;;;8.90;99.90;;;;;;5051160;28;20540;-54
2024/01/22 05:42:58;;;;;;;1.20;0.47;;;9.10;99.90;;;;;;5052153;28;20035;-56
2024/01/22 05:45:25;;;;;;;1.37;0.50;;;9.20;99.90;;;;;;5052248;28;20078;-52
2024/01/22 05:47:50;;;;;;;1.20;0.50;;;9.30;99.90;;;;;;5052049;28;20043;-51
2024/01/22 05:50:16;;;;;;;0.70;0.50;;;9.30;99.90;;;;;;5052188;28;20029;-55
2024/01/22 05:52:42;;;;;;;4.97;0.93;;;9.40;99.90;;;;;;5051970;28;20029;-53
2024/01/22 05:55:08;;;;;;;5.73;2.47;;;9.60;99.90;;;;;;5050890;28;20454;-54
2024/01/22 05:57:33;;;;;;;7.43;2.03;;;9.70;99.90;;;;;;5051499;28;20032;-54
2024/01/22 05:59:59;;;;;;;3.50;1.17;;;9.80;99.90;;;;;;5051845;28;20109;-53
2024/01/22 06:02:25;;;;;;;1.30;0.53;;;9.70;99.90;;;;;;5051691;28;20075;-55
2024/01/22 06:04:50;;;;;;;1.37;0.50;;;9.80;99.90;;;;;;5050936;28;20057;-54
2024/01/22 06:07:17;;;;;;;0.80;0.50;;;9.90;99.90;;;;;;5052063;28;20422;-54
2024/01/22 06:09:43;;;;;;;2.00;0.73;;;9.90;99.90;;;;;;5051865;28;20398;-55
2024/01/22 06:12:08;;;;;;;2.37;0.90;;;10.00;99.90;;;;;;5051671;28;20029;-55
2024/01/22 06:14:34;;;;;;;0.77;0.30;;;10.20;99.90;;;;;;5051976;28;20028;-56
2024/01/22 06:17:00;;;;;;;1.57;0.30;;;10.20;99.90;;;;;;5051822;28;20588;-55
2024/01/22 06:19:25;;;;;;;1.33;0.30;;;10.20;99.90;;;;;;5051735;28;20477;-55
2024/01/22 06:21:51;;;;;;;1.03;0.30;;;10.10;99.90;;;;;;5051646;28;20111;-55
2024/01/22 06:24:17;;;;;;;0.83;0.30;;;10.20;99.90;;;;;;5051560;28;20045;-53
2024/01/22 06:26:42;;;;;;;1.13;0.30;;;10.20;99.90;;;;;;5051888;28;20029;-54
2024/01/22 06:29:13;;;;;;;0.70;0.40;;;10.40;99.90;;;;;;5051639;28;20425;-56
2024/01/22 06:31:39;;;;;;;1.80;0.33;;;10.50;99.90;;;;;;5051507;28;20025;-54
2024/01/22 06:34:05;;;;;;;1.40;0.40;;;10.60;99.90;;;;;;5051720;28;20052;-54
2024/01/22 06:36:31;;;;;;;0.57;0.33;;;10.60;99.90;;;;;;5052129;28;20029;-54
2024/01/22 06:38:57;;;;;;;2.30;0.40;;;10.50;99.90;;;;;;5050380;28;20025;-54
2024/01/22 06:41:23;;;;;;;0.80;0.40;;;10.50;99.90;;;;;;5051703;28;20033;-56
2024/01/22 06:43:49;;;;;;;0.43;0.20;;;10.50;99.90;;;;;;5050156;28;20032;-56
2024/01/22 06:46:14;;;;;;;3.03;0.50;;;10.60;99.90;;;;;;5051538;28;20048;-55
2024/01/22 06:48:40;;;;;;;2.27;0.30;;;10.60;99.90;;;;;;5051601;28;20498;-55
2024/01/22 06:51:08;;;;;;;0.60;0.20;;;10.70;99.90;;;;;;5051348;28;20029;-55
2024/01/22 06:53:34;;;;;;;0.63;0.37;;;10.70;99.90;;;;;;5051446;28;20078;-55
2024/01/22 06:55:59;;;;;;;2.90;0.47;;;10.70;99.90;;;;;;5051676;28;20041;-56
2024/01/22 06:58:25;;;;;;;1.77;0.40;;;10.70;99.90;;;;;;5051467;28;20029;-55
2024/01/22 07:00:53;;;;;;;0.77;0.30;;;10.60;99.90;;;;;;5051363;28;20025;-54
2024/01/22 07:03:20;;;;;;;1.10;0.43;;;10.60;99.90;;;;;;5052279;28;20029;-55
2024/01/22 07:05:46;;;;;;;0.87;0.40;;;10.50;99.90;;;;;;5051359;28;20035;-56
2024/01/22 07:08:11;;;;;;;0.97;0.50;;;10.50;99.90;;;;;;5051330;28;20028;-55
2024/01/22 07:10:38;;;;;;;1.37;0.30;;;10.50;99.90;;;;;;5054296;28;20033;-55
2024/01/22 07:13:03;;;;;;;1.00;0.80;;;10.50;99.90;;;;;;5054919;28;20040;-53
2024/01/22 07:15:29;;;;;;;0.30;0.27;;;10.50;99.90;;;;;;5055173;28;20029;-53
2024/01/22 07:17:54;;;;;;;0.87;0.43;;;10.60;99.90;;;;;;5055148;28;20068;-56
2024/01/22 07:20:20;;;;;;;0.60;0.40;;;10.60;99.90;;;;;;5053791;28;20025;-56
2024/01/22 07:22:46;;;;;;;1.03;0.47;;;10.70;99.90;;;;;;5054941;28;20025;-55
2024/01/22 07:25:12;;;;;;;1.43;0.50;;;10.70;99.90;;;;;;5054857;28;20512;-55
2024/01/22 07:27:39;;;;;;;1.67;0.50;;;10.90;99.90;;;;;;5055091;28;20041;-56
2024/01/22 07:30:08;;;;;;;0.70;0.40;;;10.90;99.90;;;;;;5054800;28;20040;-55
2024/01/22 07:32:36;;;;;;;;;;;11.10;99.90;;;;;;5055177;28;20032;-55
2024/01/22 07:35:10;;;;;;;1.40;0.57;;;11.20;99.90;;;;;;5054799;28;19955;-56
2024/01/22 07:37:37;;;;;;;1.27;0.70;;;11.20;99.90;;;;;;5054759;28;20577;-55
2024/01/22 07:40:04;;;;;;;1.80;0.87;;;11.30;99.90;;;;;;5054624;28;20068;-55
2024/01/22 07:42:32;;;;;;;2.97;0.60;;;11.40;99.90;;;;;;5053207;28;20049;-56
2024/01/22 07:44:57;;;;;;;6.40;1.20;;;11.50;99.90;;;;;;5053470;28;20037;-54
2024/01/22 07:47:23;;;;;;;2.57;1.00;;;11.50;99.90;;;;;;5054810;28;20032;-56
2024/01/22 07:49:48;;;;;;;5.90;1.50;;;11.60;99.90;;;;;;5053223;28;20051;-51
2024/01/22 07:52:15;;;;;;;1.73;1.10;;;11.70;99.90;;;;;;5054438;28;20061;-55
2024/01/22 07:54:41;;;;;;;5.90;2.00;;;11.80;99.90;;;;;;5054531;28;20071;-52
2024/01/22 07:57:07;;;;;;;3.70;1.43;;;11.80;99.90;;;;;;5054398;28;20079;-56
2024/01/22 07:59:37;;;;;;;4.32;0.93;;;11.80;99.90;;;;;;5054164;28;20029;-52
2024/01/22 08:02:04;;;;;;;4.70;1.07;;;11.80;99.90;;;;;;5054209;28;20482;-54
2024/01/22 08:04:30;;;;;;;4.43;1.30;;;11.80;99.90;;;;;;5054113;28;20112;-55
2024/01/22 08:06:55;;;;;;;5.73;1.33;;;11.80;99.90;;;;;;5054216;28;20108;-54
2024/01/22 08:09:21;;;;;;;2.77;1.00;;;11.70;99.90;;;;;;5053994;28;20140;-53
2024/01/22 08:11:47;;;;;;;1.63;0.70;;;11.70;99.90;;;;;;5053942;28;20044;-55
2024/01/22 08:14:13;;;;;;;2.37;0.80;;;11.60;99.90;;;;;;5054140;28;20029;-55
2024/01/22 08:16:39;;;;;;;1.53;0.50;;;11.50;99.90;;;;;;5052864;28;20370;-52
2024/01/22 08:19:05;;;;;;;4.27;1.27;;;11.40;99.90;;;;;;5052736;28;20094;-56
2024/01/22 08:21:31;;;;;;;4.90;1.57;;;11.40;99.90;;;;;;5053165;28;20396;-53
2024/01/22 08:23:57;;;;;;;2.67;1.00;;;11.40;99.90;;;;;;5053746;28;20091;-56
2024/01/22 08:26:22;;;;;;;1.10;0.50;;;11.40;99.90;;;;;;5053884;28;20036;-54
2024/01/22 08:28:48;;;;;;;1.93;0.63;;;11.30;99.90;;;;;;5053855;28;20067;-52
2024/01/22 08:31:13;;;;;;;2.40;0.40;;;11.30;99.90;;;;;;5054183;28;20432;-55
2024/01/22 08:33:39;;;;;;;1.27;0.43;;;11.20;99.90;;;;;;5054080;28;20065;-52
2024/01/22 08:36:05;;;;;;;1.03;0.40;;;11.30;99.90;;;;;;5053966;28;20037;-54
2024/01/22 08:38:30;;;;;;;0.57;0.50;;;11.30;99.90;;;;;;5053918;28;20037;-54
2024/01/22 08:40:56;;;;;;;0.80;0.37;;;11.20;99.90;;;;;;5053152;28;20116;-55
2024/01/22 08:43:22;;;;;;;1.13;0.37;;;11.20;99.90;;;;;;5054140;28;20025;-55
2024/01/22 08:45:47;;;;;;;1.87;0.77;;;11.10;99.90;;;;;;5055557;28;20524;-55
2024/01/22 08:48:13;;;;;;;0.60;0.40;;;11.00;99.90;;;;;;5055517;28;20060;-55
2024/01/22 08:50:39;;;;;;;1.07;0.50;;;10.90;99.90;;;;;;5053570;28;20029;-54
2024/01/22 08:53:04;;;;;;;0.70;0.40;;;10.90;99.90;;;;;;5054363;28;20474;-54
2024/01/22 08:55:30;;;;;;;1.13;0.50;;;10.90;99.90;;;;;;5054654;28;20029;-55
2024/01/22 08:57:56;;;;;;;0.70;0.30;;;10.90;99.90;;;;;;5053785;28;20044;-56
2024/01/22 09:00:23;;;;;;;0.63;0.30;;;10.90;99.90;;;;;;5053129;28;20029;-56
2024/01/22 09:02:49;;;;;;;0.97;0.40;;;10.90;99.90;;;;;;5052937;28;20037;-51
2024/01/22 09:05:15;;;;;;;1.20;0.40;;;10.90;99.90;;;;;;5053072;28;20029;-56
2024/01/22 09:07:41;;;;;;;0.93;0.40;;;11.00;99.90;;;;;;5053060;28;20436;-53
2024/01/22 09:10:07;;;;;;;2.27;0.50;;;11.00;99.90;;;;;;5052853;28;20029;-53
2024/01/22 09:12:34;;;;;;;1.43;0.53;;;10.90;99.90;;;;;;5052678;28;20044;-56
2024/01/22 09:15:01;;;;;;;1.93;0.47;;;11.00;99.90;;;;;;5052908;28;20037;-53
2024/01/22 09:17:26;;;;;;;2.23;0.60;;;10.90;99.90;;;;;;5052919;28;20025;-54
2024/01/22 09:19:52;;;;;;;0.53;0.50;;;10.90;99.90;;;;;;5051485;28;20063;-52
2024/01/22 09:22:19;;;;;;;1.23;0.50;;;10.90;99.90;;;;;;5052612;28;20037;-53
2024/01/22 09:24:45;;;;;;;1.80;0.50;;;10.90;99.90;;;;;;5052719;28;20033;-55
2024/01/22 09:27:11;;;;;;;2.07;0.60;;;10.90;99.90;;;;;;5052743;28;20029;-53
2024/01/22 09:29:37;;;;;;;0.90;0.50;;;11.00;99.90;;;;;;5052708;28;20025;-52
2024/01/22 09:32:02;;;;;;;1.97;0.90;;;11.00;99.90;;;;;;5052204;28;20432;-55
2024/01/22 09:34:28;;;;;;;2.77;0.57;;;11.10;99.90;;;;;;5051762;28;20036;-53
2024/01/22 09:36:54;;;;;;;1.47;0.67;;;11.30;99.90;;;;;;5052464;28;20055;-53
2024/01/22 09:39:20;;;;;;;2.90;0.70;;;11.30;99.90;;;;;;5052809;28;20044;-53
2024/01/22 09:41:46;;;;;;;9.37;1.27;;;11.30;99.90;;;;;;5052691;28;20029;-56
2024/01/22 09:44:12;;;;;;;1.43;0.43;;;11.30;99.90;;;;;;5052236;28;20037;-55
2024/01/22 09:46:39;;;;;;;1.57;0.83;;;11.40;99.90;;;;;;5052291;28;20112;-55
2024/01/22 09:49:05;;;;;;;1.90;0.60;;;11.50;99.90;;;;;;5052632;28;20496;-55
2024/01/22 09:51:34;;;;;;;5.30;0.87;;;11.60;99.90;;;;;;5052141;28;20036;-53
2024/01/22 09:54:06;;;;;;;3.88;0.50;;;11.60;99.90;;;;;;5052258;28;20552;-55
2024/01/22 09:56:32;;;;;;;3.20;1.07;;;11.70;99.90;;;;;;5051377;28;20086;-54
2024/01/22 09:59:04;;;;;;;3.20;0.60;;;11.80;99.90;;;;;;5052362;28;20024;-55
2024/01/22 10:01:31;;;;;;;4.37;0.90;;;11.70;99.90;;;;;;5052564;28;20040;-54
2024/01/22 10:03:57;;;;;;;4.90;0.90;;;11.80;99.90;;;;;;5052325;28;20040;-53
2024/01/22 10:06:23;;;;;;;2.97;0.80;;;11.90;99.90;;;;;;5052586;28;20029;-51
2024/01/22 10:08:58;;;;;;;2.90;0.77;;;11.90;99.90;;;;;;5051977;28;20428;-51
2024/01/22 10:11:25;;;;;;;1.83;0.60;;;12.00;99.90;;;;;;5051838;28;20032;-56
2024/01/22 10:13:50;;;;;;;2.50;0.80;;;12.00;99.90;;;;;;5051892;28;20087;-55
2024/01/22 10:16:16;;;;;;;2.43;0.67;;;11.90;99.90;;;;;;5052163;28;20529;-56
2024/01/22 10:18:58;;;;;;;14.80;6.03;;;12.00;99.90;;;;;;5051748;28;20068;-56
2024/01/22 10:21:24;;;;;;;6.90;3.30;;;11.90;99.90;;;;;;5051847;28;20128;-53
2024/01/22 10:24:03;;;;;;;2.80;0.83;;;12.00;99.90;;;;;;5051638;28;20116;-56
2024/01/22 10:26:30;;;;;;;5.10;0.70;;;12.00;99.90;;;;;;5052071;28;20053;-53
2024/01/22 10:29:11;;;;;;;2.93;0.60;;;12.00;99.90;;;;;;5051688;28;20029;-57
2024/01/22 10:31:56;;;;;;;1.20;0.40;;;12.00;99.90;;;;;;5051609;28;20037;-56
2024/01/22 10:34:29;;;;;;;2.73;0.70;;;12.10;99.90;;;;;;5051806;28;20067;-56
2024/01/22 10:37:09;;;;;;;1.87;0.57;;;12.00;99.90;;;;;;5051871;28;20033;-55
2024/01/22 10:39:35;;;;;;;;;;;12.00;99.90;;;;;;5052016;28;20044;-56
2024/01/22 10:42:14;;;;;;;4.63;0.63;;;12.10;99.90;;;;;;5051808;28;19909;-56
2024/01/22 10:44:50;;;;;;;1.88;0.80;;;12.10;99.90;;;;;;5053140;28;20040;-55
2024/01/22 10:47:16;;;;;;;6.73;0.97;;;12.10;99.90;;;;;;5055823;28;20029;-56
2024/01/22 10:49:43;;;;;;;3.40;0.60;;;12.00;99.90;;;;;;5055613;28;20390;-55
2024/01/22 10:52:09;;;;;;;1.90;0.70;;;12.10;99.90;;;;;;5055473;28;20036;-56
2024/01/22 10:54:36;;;;;;;4.60;1.00;;;12.10;99.90;;;;;;5055802;28;20033;-54
2024/01/22 10:57:04;;;;;;;1.80;0.70;;;12.10;99.90;;;;;;5055862;28;20125;-52
2024/01/22 10:59:38;;;;;;;2.97;1.02;;;12.20;99.90;;;;;;5055837;28;20029;-53
2024/01/22 11:02:05;;;;;;;2.88;0.82;;;12.20;99.90;;;;;;5055527;28;20029;-54
2024/01/22 11:04:38;;;;;;;4.47;0.87;;;12.20;99.90;;;;;;5055208;28;20045;-54
2024/01/22 11:07:06;;;;;;;3.50;0.83;;;12.20;99.90;;;;;;5055463;28;20029;-54
2024/01/22 11:09:32;;;;;;;1.67;0.50;;;12.20;99.90;;;;;;5055177;28;20064;-54
2024/01/22 11:12:21;;;;;;;4.67;0.60;;;12.30;99.90;;;;;;5055184;28;20521;-51
2024/01/22 11:14:47;;;;;;;3.13;0.93;;;12.30;99.90;;;;;;5055512;28;20029;-52
2024/01/22 11:17:15;;;;;;;6.83;0.90;;;12.30;99.90;;;;;;5055179;28;20057;-54
2024/01/22 11:19:40;;;;;;;3.10;0.90;;;12.30;99.90;;;;;;5054927;28;20051;-53
2024/01/22 11:22:12;;;;;;;3.67;0.90;;;12.30;99.90;;;;;;5055137;28;20033;-54
2024/01/22 11:24:39;;;;;;;6.25;1.08;;;12.30;99.90;;;;;;5053621;28;20112;-55
2024/01/22 11:27:05;;;;;;;6.77;1.40;;;12.40;99.90;;;;;;5055145;28;20254;-55
2024/01/22 11:29:32;;;;;;;4.63;1.00;;;12.40;99.90;;;;;;5054871;28;20072;-55
2024/01/22 11:32:23;;;;;;;4.37;1.10;;;12.40;99.90;;;;;;5054650;28;20029;-55
2024/01/22 11:34:48;;;;;;;7.00;1.00;;;12.30;99.90;;;;;;5054813;28;20029;-54
2024/01/22 11:37:36;;;;;;;4.50;1.17;;;12.20;99.90;;;;;;5054848;28;20033;-55
2024/01/22 11:40:02;;;;;;;5.27;1.37;;;12.20;99.90;;;;;;5054571;28;20077;-54
2024/01/22 11:42:30;;;;;;;4.70;1.03;;;12.10;99.90;;;;;;5054431;28;20116;-53
2024/01/22 11:44:58;;;;;;;6.03;1.40;;;11.90;99.90;;;;;;5054516;28;20033;-55
2024/01/22 11:47:25;;;;;;;9.02;1.70;;;11.70;99.90;;;;;;5054625;28;20040;-54
2024/01/22 11:50:04;;;;;;;5.80;1.17;;;11.40;99.90;;;;;;5054439;28;20021;-53
2024/01/22 11:52:30;;;;;;;2.15;0.40;;;11.30;99.90;;;;;;5054378;28;20045;-52
2024/01/22 11:54:59;;;;;;;3.20;1.10;;;11.10;99.90;;;;;;5054418;28;20033;-54
2024/01/22 11:57:26;;;;;;;4.10;0.87;;;11.00;99.90;;;;;;5053248;28;20041;-51
2024/01/22 12:00:04;;;;;;;4.97;1.00;;;10.90;99.90;;;;;;5054227;28;20526;-53
2024/01/22 12:02:40;;;;;;;5.53;1.13;;;10.90;99.90;;;;;;5054149;28;20029;-53
2024/01/22 12:05:11;;;;;;;2.93;0.90;;;10.90;99.90;;;;;;5054247;28;20043;-55
2024/01/22 12:07:39;;;;;;;7.10;1.10;;;10.90;99.90;;;;;;5054463;28;20481;-53
2024/01/22 12:10:18;;;;;;;21.10;2.33;;;10.80;99.90;;;;;;5054220;28;20317;-55
2024/01/22 12:12:49;;;;;;;6.77;1.17;;;10.60;99.90;;;;;;5053997;28;20039;-55
2024/01/22 12:15:14;;;;;;;5.33;1.47;;;10.30;99.90;;;;;;5054022;28;20112;-54
2024/01/22 12:17:43;;;;;;;8.67;1.27;;;10.10;99.90;;;;;;5054046;28;20183;-53
2024/01/22 12:20:10;;;;;;;5.18;1.40;;;10.00;99.90;;;;;;5054049;28;20370;-55
2024/01/22 12:22:36;;;;;;;14.00;1.83;;;10.00;99.90;;;;;;5053833;28;20132;-55
2024/01/22 12:25:09;;;;;;;7.97;1.97;;;10.00;99.90;;;;;;5053751;28;20541;-54
2024/01/22 12:27:35;;;;;;;10.00;2.40;;;10.00;99.90;;;;;;5053898;28;20056;-54
2024/01/22 12:30:03;;;;;;;14.37;1.60;;;10.00;99.90;;;;;;5054384;28;20029;-54
2024/01/22 12:32:29;;;;;;;9.53;1.70;;;9.90;99.90;;;;;;5054487;28;20108;-54
2024/01/22 12:34:58;;;;;;;8.17;1.50;;;9.90;99.90;;;;;;5053739;28;20464;-53
2024/01/22 12:37:28;;;;;;;9.50;2.10;;;9.90;99.90;;;;;;5054176;28;20044;-55
2024/01/22 12:40:05;;;;;;;10.77;1.50;;;9.80;99.90;;;;;;5053844;28;20516;-55
2024/01/22 12:42:31;;;;;;;8.30;1.87;;;9.80;99.90;;;;;;5053454;28;20041;-51
2024/01/22 12:44:58;;;;;;;9.90;1.73;;;9.80;99.90;;;;;;5053595;28;20091;-55
2024/01/22 12:47:25;;;;;;;14.83;2.40;;;9.70;99.90;;;;;;5053422;28;20036;-55
2024/01/22 12:49:52;;;;;;;9.00;1.80;;;9.60;99.90;;;;;;5053348;28;20025;-54
2024/01/22 12:52:18;;;;;;;9.47;1.67;;;9.50;99.90;;;;;;5053244;28;20032;-55